sensor_id;sensor_type;location;lat;lon;timestamp;temperature;humidity
15394;DHT22;7795;47.986;11.868;2023-01-31T00:00:03;5.50;76.30
15394;DHT22;7795;47.986;11.868;2023-01-31T00:02:29;5.50;76.20
15394;DHT22;7795;47.986;11.868;2023-01-31T00:04:55;5.50;76.20
15394;DHT22;7795;47.986;11.868;2023-01-31T00:07:21;5.50;76.20
15394;DHT22;7795;47.986;11.868;2023-01-31T00:09:47;5.50;76.10
15394;DHT22;7795;47.986;11.868;2023-01-31T00:12:14;5.50;76.10
15394;DHT22;7795;47.986;11.868;2023-01-31T00:14:39;5.50;76.10
15394;DHT22;7795;47.986;11.868;2023-01-31T00:17:05;5.50;76.10
15394;DHT22;7795;47.986;11.868;2023-01-31T00:19:31;5.50;76.10
15394;DHT22;7795;47.986;11.868;2023-01-31T00:21:56;5.50;76.10
15394;DHT22;7795;47.986;11.868;2023-01-31T00:24:22;5.50;76.80
15394;DHT22;7795;47.986;11.868;2023-01-31T00:26:48;5.50;76.10
15394;DHT22;7795;47.986;11.868;2023-01-31T00:29:22;5.50;76.00
15394;DHT22;7795;47.986;11.868;2023-01-31T00:31:49;5.50;76.00
15394;DHT22;7795;47.986;11.868;2023-01-31T00:34:15;5.50;76.00
15394;DHT22;7795;47.986;11.868;2023-01-31T00:36:41;5.50;76.00
15394;DHT22;7795;47.986;11.868;2023-01-31T00:39:08;5.50;76.10
15394;DHT22;7795;47.986;11.868;2023-01-31T00:41:35;5.50;76.10
15394;DHT22;7795;47.986;11.868;2023-01-31T00:44:01;5.50;76.00
15394;DHT22;7795;47.986;11.868;2023-01-31T00:46:28;5.50;75.90
15394;DHT22;7795;47.986;11.868;2023-01-31T00:48:54;5.50;75.90
15394;DHT22;7795;47.986;11.868;2023-01-31T00:51:24;5.50;76.70
15394;DHT22;7795;47.986;11.868;2023-01-31T00:53:50;5.50;76.00
15394;DHT22;7795;47.986;11.868;2023-01-31T00:56:18;5.50;76.00
15394;DHT22;7795;47.986;11.868;2023-01-31T00:58:44;5.50;75.90
15394;DHT22;7795;47.986;11.868;2023-01-31T01:01:12;5.50;76.10
15394;DHT22;7795;47.986;11.868;2023-01-31T01:03:40;5.50;75.90
15394;DHT22;7795;47.986;11.868;2023-01-31T01:06:07;5.50;75.90
15394;DHT22;7795;47.986;11.868;2023-01-31T01:08:34;5.50;75.90
15394;DHT22;7795;47.986;11.868;2023-01-31T01:11:04;5.50;75.90
15394;DHT22;7795;47.986;11.868;2023-01-31T01:13:30;5.50;75.90
15394;DHT22;7795;47.986;11.868;2023-01-31T01:15:56;5.50;76.00
15394;DHT22;7795;47.986;11.868;2023-01-31T01:18:22;5.50;76.10
15394;DHT22;7795;47.986;11.868;2023-01-31T01:20:49;5.50;76.10
15394;DHT22;7795;47.986;11.868;2023-01-31T01:23:14;5.50;76.90
15394;DHT22;7795;47.986;11.868;2023-01-31T01:25:42;5.50;76.10
15394;DHT22;7795;47.986;11.868;2023-01-31T01:28:07;5.50;76.20
15394;DHT22;7795;47.986;11.868;2023-01-31T01:30:33;5.50;76.10
15394;DHT22;7795;47.986;11.868;2023-01-31T01:32:59;5.50;76.10
15394;DHT22;7795;47.986;11.868;2023-01-31T01:35:25;5.50;76.10
15394;DHT22;7795;47.986;11.868;2023-01-31T01:37:52;5.50;76.10
15394;DHT22;7795;47.986;11.868;2023-01-31T01:40:17;5.50;76.10
15394;DHT22;7795;47.986;11.868;2023-01-31T01:42:43;5.50;76.10
15394;DHT22;7795;47.986;11.868;2023-01-31T01:45:11;5.50;76.10
15394;DHT22;7795;47.986;11.868;2023-01-31T01:47:44;5.50;76.10
15394;DHT22;7795;47.986;11.868;2023-01-31T01:50:13;5.50;76.10
15394;DHT22;7795;47.986;11.868;2023-01-31T01:52:44;5.50;76.10
15394;DHT22;7795;47.986;11.868;2023-01-31T01:55:16;5.50;76.10
15394;DHT22;7795;47.986;11.868;2023-01-31T01:57:44;5.50;76.10
15394;DHT22;7795;47.986;11.868;2023-01-31T02:00:14;5.50;76.10
15394;DHT22;7795;47.986;11.868;2023-01-31T02:02:44;5.50;76.10
15394;DHT22;7795;47.986;11.868;2023-01-31T02:05:12;5.50;76.10
15394;DHT22;7795;47.986;11.868;2023-01-31T02:07:39;5.50;76.00
15394;DHT22;7795;47.986;11.868;2023-01-31T02:10:09;5.50;76.00
15394;DHT22;7795;47.986;11.868;2023-01-31T02:12:39;5.50;75.90
15394;DHT22;7795;47.986;11.868;2023-01-31T02:15:06;5.50;75.90
15394;DHT22;7795;47.986;11.868;2023-01-31T02:17:32;5.50;75.90
15394;DHT22;7795;47.986;11.868;2023-01-31T02:20:10;5.50;75.90
15394;DHT22;7795;47.986;11.868;2023-01-31T02:22:41;5.50;76.00
15394;DHT22;7795;47.986;11.868;2023-01-31T02:28:39;5.50;75.90
15394;DHT22;7795;47.986;11.868;2023-01-31T02:31:37;5.50;76.00
15394;DHT22;7795;47.986;11.868;2023-01-31T02:34:13;5.50;76.10
15394;DHT22;7795;47.986;11.868;2023-01-31T02:36:50;5.50;76.00
15394;DHT22;7795;47.986;11.868;2023-01-31T02:39:27;5.50;76.00
15394;DHT22;7795;47.986;11.868;2023-01-31T02:41:58;5.50;76.10
15394;DHT22;7795;47.986;11.868;2023-01-31T02:44:28;5.50;76.10
15394;DHT22;7795;47.986;11.868;2023-01-31T02:47:20;5.50;76.10
15394;DHT22;7795;47.986;11.868;2023-01-31T02:49:54;5.40;76.00
15394;DHT22;7795;47.986;11.868;2023-01-31T02:52:25;5.40;76.00
15394;DHT22;7795;47.986;11.868;2023-01-31T02:55:01;5.40;76.00
15394;DHT22;7795;47.986;11.868;2023-01-31T02:57:49;5.40;76.10
15394;DHT22;7795;47.986;11.868;2023-01-31T03:00:16;5.40;76.10
15394;DHT22;7795;47.986;11.868;2023-01-31T03:02:43;5.40;76.10
15394;DHT22;7795;47.986;11.868;2023-01-31T03:05:13;5.40;76.10
15394;DHT22;7795;47.986;11.868;2023-01-31T03:07:41;5.40;76.10
15394;DHT22;7795;47.986;11.868;2023-01-31T03:10:36;5.40;76.80
15394;DHT22;7795;47.986;11.868;2023-01-31T03:13:22;5.40;76.10
15394;DHT22;7795;47.986;11.868;2023-01-31T03:15:59;5.40;76.20
15394;DHT22;7795;47.986;11.868;2023-01-31T03:18:51;5.40;76.20
15394;DHT22;7795;47.986;11.868;2023-01-31T03:21:24;5.40;76.10
15394;DHT22;7795;47.986;11.868;2023-01-31T03:23:52;5.40;76.20
15394;DHT22;7795;47.986;11.868;2023-01-31T03:26:20;5.40;76.10
15394;DHT22;7795;47.986;11.868;2023-01-31T03:28:48;5.40;76.10
15394;DHT22;7795;47.986;11.868;2023-01-31T03:31:22;5.40;76.10
15394;DHT22;7795;47.986;11.868;2023-01-31T03:33:51;5.40;76.10
15394;DHT22;7795;47.986;11.868;2023-01-31T03:36:27;5.40;76.10
15394;DHT22;7795;47.986;11.868;2023-01-31T03:39:01;5.40;75.90
15394;DHT22;7795;47.986;11.868;2023-01-31T03:41:33;5.40;75.80
15394;DHT22;7795;47.986;11.868;2023-01-31T03:44:07;5.40;75.80
15394;DHT22;7795;47.986;11.868;2023-01-31T03:46:36;5.40;75.90
15394;DHT22;7795;47.986;11.868;2023-01-31T03:49:06;5.30;75.80
15394;DHT22;7795;47.986;11.868;2023-01-31T03:51:36;5.30;75.80
15394;DHT22;7795;47.986;11.868;2023-01-31T03:54:05;5.30;75.80
15394;DHT22;7795;47.986;11.868;2023-01-31T03:56:36;5.30;75.80
15394;DHT22;7795;47.986;11.868;2023-01-31T03:59:08;5.30;75.80
15394;DHT22;7795;47.986;11.868;2023-01-31T04:01:38;5.30;75.80
15394;DHT22;7795;47.986;11.868;2023-01-31T04:04:08;5.30;75.80
15394;DHT22;7795;47.986;11.868;2023-01-31T04:06:36;5.30;75.80
15394;DHT22;7795;47.986;11.868;2023-01-31T04:09:02;5.30;75.60
15394;DHT22;7795;47.986;11.868;2023-01-31T04:11:28;5.30;75.60
15394;DHT22;7795;47.986;11.868;2023-01-31T04:13:54;5.30;75.60
15394;DHT22;7795;47.986;11.868;2023-01-31T04:16:20;5.20;75.50
15394;DHT22;7795;47.986;11.868;2023-01-31T04:18:45;5.20;75.50
15394;DHT22;7795;47.986;11.868;2023-01-31T04:21:13;5.20;75.40
15394;DHT22;7795;47.986;11.868;2023-01-31T04:23:40;5.20;75.40
15394;DHT22;7795;47.986;11.868;2023-01-31T04:26:06;5.20;75.40
15394;DHT22;7795;47.986;11.868;2023-01-31T04:28:32;5.10;75.20
15394;DHT22;7795;47.986;11.868;2023-01-31T04:30:58;5.10;75.20
15394;DHT22;7795;47.986;11.868;2023-01-31T04:33:23;5.00;75.20
15394;DHT22;7795;47.986;11.868;2023-01-31T04:35:50;5.00;75.20
15394;DHT22;7795;47.986;11.868;2023-01-31T04:38:16;5.00;75.20
15394;DHT22;7795;47.986;11.868;2023-01-31T04:40:43;4.90;75.20
15394;DHT22;7795;47.986;11.868;2023-01-31T04:43:09;4.90;75.30
15394;DHT22;7795;47.986;11.868;2023-01-31T04:45:34;4.80;75.30
15394;DHT22;7795;47.986;11.868;2023-01-31T04:48:00;4.80;75.40
15394;DHT22;7795;47.986;11.868;2023-01-31T04:50:26;4.80;75.40
15394;DHT22;7795;47.986;11.868;2023-01-31T04:52:51;4.70;75.40
15394;DHT22;7795;47.986;11.868;2023-01-31T04:55:17;4.70;75.50
15394;DHT22;7795;47.986;11.868;2023-01-31T04:57:44;4.70;75.60
15394;DHT22;7795;47.986;11.868;2023-01-31T05:00:11;4.70;75.60
15394;DHT22;7795;47.986;11.868;2023-01-31T05:02:37;4.60;75.60
15394;DHT22;7795;47.986;11.868;2023-01-31T05:05:04;4.60;75.60
15394;DHT22;7795;47.986;11.868;2023-01-31T05:07:30;4.60;75.80
15394;DHT22;7795;47.986;11.868;2023-01-31T05:09:55;4.60;75.80
15394;DHT22;7795;47.986;11.868;2023-01-31T05:12:21;4.60;75.80
15394;DHT22;7795;47.986;11.868;2023-01-31T05:14:48;4.60;76.60
15394;DHT22;7795;47.986;11.868;2023-01-31T05:17:15;4.60;75.90
15394;DHT22;7795;47.986;11.868;2023-01-31T05:19:41;4.60;76.00
15394;DHT22;7795;47.986;11.868;2023-01-31T05:22:08;4.60;76.00
15394;DHT22;7795;47.986;11.868;2023-01-31T05:24:34;4.60;76.10
15394;DHT22;7795;47.986;11.868;2023-01-31T05:27:02;4.60;76.00
15394;DHT22;7795;47.986;11.868;2023-01-31T05:29:29;4.60;76.00
15394;DHT22;7795;47.986;11.868;2023-01-31T05:31:57;4.60;76.00
15394;DHT22;7795;47.986;11.868;2023-01-31T05:34:24;4.60;75.90
15394;DHT22;7795;47.986;11.868;2023-01-31T05:36:50;4.60;76.00
15394;DHT22;7795;47.986;11.868;2023-01-31T05:39:16;4.60;76.00
15394;DHT22;7795;47.986;11.868;2023-01-31T05:41:42;4.60;76.00
15394;DHT22;7795;47.986;11.868;2023-01-31T05:44:08;4.60;75.90
15394;DHT22;7795;47.986;11.868;2023-01-31T05:46:35;4.60;75.80
15394;DHT22;7795;47.986;11.868;2023-01-31T05:49:02;4.60;75.80
15394;DHT22;7795;47.986;11.868;2023-01-31T05:51:28;4.60;75.70
15394;DHT22;7795;47.986;11.868;2023-01-31T05:53:54;4.60;75.70
15394;DHT22;7795;47.986;11.868;2023-01-31T05:56:20;4.60;75.70
15394;DHT22;7795;47.986;11.868;2023-01-31T05:58:46;4.60;75.60
15394;DHT22;7795;47.986;11.868;2023-01-31T06:01:15;4.60;75.60
15394;DHT22;7795;47.986;11.868;2023-01-31T06:03:41;4.60;75.60
15394;DHT22;7795;47.986;11.868;2023-01-31T06:06:08;4.50;75.50
15394;DHT22;7795;47.986;11.868;2023-01-31T06:08:33;4.50;75.50
15394;DHT22;7795;47.986;11.868;2023-01-31T06:11:00;4.50;75.60
15394;DHT22;7795;47.986;11.868;2023-01-31T06:13:26;4.50;75.60
15394;DHT22;7795;47.986;11.868;2023-01-31T06:15:52;4.50;75.60
15394;DHT22;7795;47.986;11.868;2023-01-31T06:18:17;4.50;75.60
15394;DHT22;7795;47.986;11.868;2023-01-31T06:20:44;4.50;75.60
15394;DHT22;7795;47.986;11.868;2023-01-31T06:23:11;4.50;75.70
15394;DHT22;7795;47.986;11.868;2023-01-31T06:25:37;4.50;75.70
15394;DHT22;7795;47.986;11.868;2023-01-31T06:28:03;4.50;75.70
15394;DHT22;7795;47.986;11.868;2023-01-31T06:30:30;4.50;75.80
15394;DHT22;7795;47.986;11.868;2023-01-31T06:32:58;4.50;75.70
15394;DHT22;7795;47.986;11.868;2023-01-31T06:35:24;4.50;75.70
15394;DHT22;7795;47.986;11.868;2023-01-31T06:37:50;4.50;75.60
15394;DHT22;7795;47.986;11.868;2023-01-31T06:40:17;4.60;75.70
15394;DHT22;7795;47.986;11.868;2023-01-31T06:42:43;4.60;75.80
15394;DHT22;7795;47.986;11.868;2023-01-31T06:45:09;4.60;76.50
15394;DHT22;7795;47.986;11.868;2023-01-31T06:47:35;4.60;75.70
15394;DHT22;7795;47.986;11.868;2023-01-31T06:50:01;4.60;75.60
15394;DHT22;7795;47.986;11.868;2023-01-31T06:52:26;4.60;75.70
15394;DHT22;7795;47.986;11.868;2023-01-31T06:54:52;4.70;75.90
15394;DHT22;7795;47.986;11.868;2023-01-31T06:57:19;4.70;75.80
15394;DHT22;7795;47.986;11.868;2023-01-31T06:59:45;4.70;75.60
15394;DHT22;7795;47.986;11.868;2023-01-31T07:02:11;4.70;75.60
15394;DHT22;7795;47.986;11.868;2023-01-31T07:04:37;4.80;75.60
15394;DHT22;7795;47.986;11.868;2023-01-31T07:07:04;4.80;75.50
15394;DHT22;7795;47.986;11.868;2023-01-31T07:09:30;4.80;75.40
15394;DHT22;7795;47.986;11.868;2023-01-31T07:11:56;4.80;75.30
15394;DHT22;7795;47.986;11.868;2023-01-31T07:14:23;4.80;75.30
15394;DHT22;7795;47.986;11.868;2023-01-31T07:16:49;4.80;75.30
15394;DHT22;7795;47.986;11.868;2023-01-31T07:19:14;4.90;75.40
15394;DHT22;7795;47.986;11.868;2023-01-31T07:21:40;4.90;75.20
15394;DHT22;7795;47.986;11.868;2023-01-31T07:24:07;4.90;75.20
15394;DHT22;7795;47.986;11.868;2023-01-31T07:26:33;4.90;75.10
15394;DHT22;7795;47.986;11.868;2023-01-31T07:28:59;4.90;75.10
15394;DHT22;7795;47.986;11.868;2023-01-31T07:31:26;4.90;75.10
15394;DHT22;7795;47.986;11.868;2023-01-31T07:33:52;4.90;75.60
15394;DHT22;7795;47.986;11.868;2023-01-31T07:36:17;4.90;74.80
15394;DHT22;7795;47.986;11.868;2023-01-31T07:38:52;4.90;74.80
15394;DHT22;7795;47.986;11.868;2023-01-31T07:41:18;4.90;74.70
15394;DHT22;7795;47.986;11.868;2023-01-31T07:43:44;4.90;74.80
15394;DHT22;7795;47.986;11.868;2023-01-31T07:46:09;4.90;74.60
15394;DHT22;7795;47.986;11.868;2023-01-31T07:48:37;4.80;74.50
15394;DHT22;7795;47.986;11.868;2023-01-31T07:51:04;4.80;74.40
15394;DHT22;7795;47.986;11.868;2023-01-31T07:53:31;4.80;74.40
15394;DHT22;7795;47.986;11.868;2023-01-31T07:56:05;4.80;74.50
15394;DHT22;7795;47.986;11.868;2023-01-31T07:58:30;4.80;74.30
15394;DHT22;7795;47.986;11.868;2023-01-31T08:00:58;4.80;74.50
15394;DHT22;7795;47.986;11.868;2023-01-31T08:03:43;4.80;74.60
15394;DHT22;7795;47.986;11.868;2023-01-31T08:06:10;4.80;74.60
15394;DHT22;7795;47.986;11.868;2023-01-31T08:08:37;4.70;74.50
15394;DHT22;7795;47.986;11.868;2023-01-31T08:11:03;4.70;74.50
15394;DHT22;7795;47.986;11.868;2023-01-31T08:13:32;4.70;74.50
15394;DHT22;7795;47.986;11.868;2023-01-31T08:15:58;4.70;74.50
15394;DHT22;7795;47.986;11.868;2023-01-31T08:18:24;4.70;74.50
15394;DHT22;7795;47.986;11.868;2023-01-31T08:20:51;4.80;74.60
15394;DHT22;7795;47.986;11.868;2023-01-31T08:23:17;4.80;74.50
15394;DHT22;7795;47.986;11.868;2023-01-31T08:25:43;4.80;74.60
15394;DHT22;7795;47.986;11.868;2023-01-31T08:28:08;4.80;74.60
15394;DHT22;7795;47.986;11.868;2023-01-31T08:30:38;4.90;74.70
15394;DHT22;7795;47.986;11.868;2023-01-31T08:33:04;4.90;74.50
15394;DHT22;7795;47.986;11.868;2023-01-31T08:35:30;4.90;74.50
15394;DHT22;7795;47.986;11.868;2023-01-31T08:37:57;5.00;74.50
15394;DHT22;7795;47.986;11.868;2023-01-31T08:40:23;5.00;74.50
15394;DHT22;7795;47.986;11.868;2023-01-31T08:42:56;5.10;74.50
15394;DHT22;7795;47.986;11.868;2023-01-31T08:45:22;5.10;74.40
15394;DHT22;7795;47.986;11.868;2023-01-31T08:47:51;5.10;74.50
15394;DHT22;7795;47.986;11.868;2023-01-31T08:50:17;5.20;74.50
15394;DHT22;7795;47.986;11.868;2023-01-31T08:52:43;5.20;74.50
15394;DHT22;7795;47.986;11.868;2023-01-31T08:55:10;5.30;74.40
15394;DHT22;7795;47.986;11.868;2023-01-31T08:57:38;5.40;74.50
15394;DHT22;7795;47.986;11.868;2023-01-31T09:00:05;5.50;74.50
15394;DHT22;7795;47.986;11.868;2023-01-31T09:02:31;5.50;74.40
15394;DHT22;7795;47.986;11.868;2023-01-31T09:04:57;5.60;74.60
15394;DHT22;7795;47.986;11.868;2023-01-31T09:07:22;5.70;74.20
15394;DHT22;7795;47.986;11.868;2023-01-31T09:09:48;5.70;74.10
15394;DHT22;7795;47.986;11.868;2023-01-31T09:12:15;5.80;74.00
15394;DHT22;7795;47.986;11.868;2023-01-31T09:14:41;5.90;73.90
15394;DHT22;7795;47.986;11.868;2023-01-31T09:17:07;6.00;73.80
15394;DHT22;7795;47.986;11.868;2023-01-31T09:19:35;6.00;73.40
15394;DHT22;7795;47.986;11.868;2023-01-31T09:22:01;6.00;73.20
15394;DHT22;7795;47.986;11.868;2023-01-31T09:24:26;6.10;73.30
15394;DHT22;7795;47.986;11.868;2023-01-31T09:26:52;6.20;73.30
15394;DHT22;7795;47.986;11.868;2023-01-31T09:29:21;6.20;73.00
15394;DHT22;7795;47.986;11.868;2023-01-31T09:31:49;6.20;72.90
15394;DHT22;7795;47.986;11.868;2023-01-31T09:34:15;6.30;72.70
15394;DHT22;7795;47.986;11.868;2023-01-31T09:36:41;6.30;72.70
15394;DHT22;7795;47.986;11.868;2023-01-31T09:39:11;6.40;72.40
15394;DHT22;7795;47.986;11.868;2023-01-31T09:41:42;6.40;71.80
15394;DHT22;7795;47.986;11.868;2023-01-31T09:44:12;6.40;71.80
15394;DHT22;7795;47.986;11.868;2023-01-31T09:46:43;6.50;71.90
15394;DHT22;7795;47.986;11.868;2023-01-31T09:49:15;6.50;72.50
15394;DHT22;7795;47.986;11.868;2023-01-31T09:51:43;6.50;71.70
15394;DHT22;7795;47.986;11.868;2023-01-31T09:54:18;6.60;71.70
15394;DHT22;7795;47.986;11.868;2023-01-31T09:56:50;6.60;71.50
15394;DHT22;7795;47.986;11.868;2023-01-31T09:59:21;6.60;71.60
15394;DHT22;7795;47.986;11.868;2023-01-31T10:01:56;6.60;71.50
15394;DHT22;7795;47.986;11.868;2023-01-31T10:04:42;6.60;71.10
15394;DHT22;7795;47.986;11.868;2023-01-31T10:07:14;6.60;70.90
15394;DHT22;7795;47.986;11.868;2023-01-31T10:09:47;6.70;71.30
15394;DHT22;7795;47.986;11.868;2023-01-31T10:12:17;6.70;71.20
15394;DHT22;7795;47.986;11.868;2023-01-31T10:14:46;6.70;70.80
15394;DHT22;7795;47.986;11.868;2023-01-31T10:17:18;6.70;70.50
15394;DHT22;7795;47.986;11.868;2023-01-31T10:19:51;6.80;70.50
15394;DHT22;7795;47.986;11.868;2023-01-31T10:22:22;6.80;70.20
15394;DHT22;7795;47.986;11.868;2023-01-31T10:24:54;6.80;70.20
15394;DHT22;7795;47.986;11.868;2023-01-31T10:27:34;6.80;70.20
15394;DHT22;7795;47.986;11.868;2023-01-31T10:30:04;6.80;70.00
15394;DHT22;7795;47.986;11.868;2023-01-31T10:32:35;6.80;70.00
15394;DHT22;7795;47.986;11.868;2023-01-31T10:35:06;6.80;70.10
15394;DHT22;7795;47.986;11.868;2023-01-31T10:37:38;6.90;69.40
15394;DHT22;7795;47.986;11.868;2023-01-31T10:40:11;6.90;69.50
15394;DHT22;7795;47.986;11.868;2023-01-31T10:42:39;6.90;70.00
15394;DHT22;7795;47.986;11.868;2023-01-31T10:45:14;6.90;69.30
15394;DHT22;7795;47.986;11.868;2023-01-31T10:47:48;6.90;69.00
15394;DHT22;7795;47.986;11.868;2023-01-31T10:50:16;6.90;68.60
15394;DHT22;7795;47.986;11.868;2023-01-31T10:53:00;7.00;68.80
15394;DHT22;7795;47.986;11.868;2023-01-31T10:55:54;6.90;68.50
15394;DHT22;7795;47.986;11.868;2023-01-31T10:58:23;6.90;68.80
15394;DHT22;7795;47.986;11.868;2023-01-31T11:00:50;6.90;69.40
15394;DHT22;7795;47.986;11.868;2023-01-31T11:03:17;6.90;69.40
15394;DHT22;7795;47.986;11.868;2023-01-31T11:05:47;6.90;69.20
15394;DHT22;7795;47.986;11.868;2023-01-31T11:08:27;7.00;69.20
15394;DHT22;7795;47.986;11.868;2023-01-31T11:10:56;7.00;68.80
15394;DHT22;7795;47.986;11.868;2023-01-31T11:13:22;7.00;68.90
15394;DHT22;7795;47.986;11.868;2023-01-31T11:15:49;7.00;69.00
15394;DHT22;7795;47.986;11.868;2023-01-31T11:18:27;7.00;68.50
15394;DHT22;7795;47.986;11.868;2023-01-31T11:20:53;7.00;68.10
15394;DHT22;7795;47.986;11.868;2023-01-31T11:23:22;7.00;68.80
15394;DHT22;7795;47.986;11.868;2023-01-31T11:25:50;7.00;68.70
15394;DHT22;7795;47.986;11.868;2023-01-31T11:28:21;7.00;68.70
15394;DHT22;7795;47.986;11.868;2023-01-31T11:30:49;7.00;68.90
15394;DHT22;7795;47.986;11.868;2023-01-31T11:33:42;7.10;69.00
15394;DHT22;7795;47.986;11.868;2023-01-31T11:36:11;7.10;68.40
15394;DHT22;7795;47.986;11.868;2023-01-31T11:38:37;7.10;68.80
15394;DHT22;7795;47.986;11.868;2023-01-31T11:41:26;7.10;68.90
15394;DHT22;7795;47.986;11.868;2023-01-31T11:44:14;7.10;68.40
15394;DHT22;7795;47.986;11.868;2023-01-31T11:46:49;7.20;68.40
15394;DHT22;7795;47.986;11.868;2023-01-31T11:49:27;7.20;68.50
15394;DHT22;7795;47.986;11.868;2023-01-31T11:51:54;7.20;68.40
15394;DHT22;7795;47.986;11.868;2023-01-31T11:54:24;7.20;68.90
15394;DHT22;7795;47.986;11.868;2023-01-31T11:56:51;7.20;68.80
15394;DHT22;7795;47.986;11.868;2023-01-31T11:59:19;7.20;69.10
15394;DHT22;7795;47.986;11.868;2023-01-31T12:01:50;7.30;69.10
15394;DHT22;7795;47.986;11.868;2023-01-31T12:04:20;7.30;69.20
15394;DHT22;7795;47.986;11.868;2023-01-31T12:06:57;7.40;69.20
15394;DHT22;7795;47.986;11.868;2023-01-31T12:09:25;7.40;68.90
15394;DHT22;7795;47.986;11.868;2023-01-31T12:11:53;7.40;69.00
15394;DHT22;7795;47.986;11.868;2023-01-31T12:14:19;7.50;68.90
15394;DHT22;7795;47.986;11.868;2023-01-31T12:16:47;7.50;68.90
15394;DHT22;7795;47.986;11.868;2023-01-31T12:19:20;7.50;68.80
15394;DHT22;7795;47.986;11.868;2023-01-31T12:21:56;7.60;68.70
15394;DHT22;7795;47.986;11.868;2023-01-31T12:24:34;7.60;68.70
15394;DHT22;7795;47.986;11.868;2023-01-31T12:27:10;7.60;68.40
15394;DHT22;7795;47.986;11.868;2023-01-31T12:29:55;7.70;68.40
15394;DHT22;7795;47.986;11.868;2023-01-31T12:32:36;7.70;67.90
15394;DHT22;7795;47.986;11.868;2023-01-31T12:38:12;7.60;68.10
15394;DHT22;7795;47.986;11.868;2023-01-31T12:40:45;7.70;68.40
15394;DHT22;7795;47.986;11.868;2023-01-31T12:43:23;7.70;68.40
15394;DHT22;7795;47.986;11.868;2023-01-31T12:46:02;7.70;68.30
15394;DHT22;7795;47.986;11.868;2023-01-31T12:48:54;7.70;68.40
15394;DHT22;7795;47.986;11.868;2023-01-31T12:51:32;7.80;68.40
15394;DHT22;7795;47.986;11.868;2023-01-31T12:54:15;7.80;68.40
15394;DHT22;7795;47.986;11.868;2023-01-31T12:56:55;7.80;67.90
15394;DHT22;7795;47.986;11.868;2023-01-31T12:59:35;7.90;67.80
15394;DHT22;7795;47.986;11.868;2023-01-31T13:02:17;7.90;67.50
15394;DHT22;7795;47.986;11.868;2023-01-31T13:04:48;7.90;67.50
15394;DHT22;7795;47.986;11.868;2023-01-31T13:07:21;7.90;67.80
15394;DHT22;7795;47.986;11.868;2023-01-31T13:09:52;7.90;67.80
15394;DHT22;7795;47.986;11.868;2023-01-31T13:12:20;7.90;67.70
15394;DHT22;7795;47.986;11.868;2023-01-31T13:14:55;7.90;67.80
15394;DHT22;7795;47.986;11.868;2023-01-31T13:17:26;7.90;67.70
15394;DHT22;7795;47.986;11.868;2023-01-31T13:19:56;7.90;67.60
15394;DHT22;7795;47.986;11.868;2023-01-31T13:22:25;8.00;67.40
15394;DHT22;7795;47.986;11.868;2023-01-31T13:25:13;8.00;67.40
15394;DHT22;7795;47.986;11.868;2023-01-31T13:27:43;8.00;66.90
15394;DHT22;7795;47.986;11.868;2023-01-31T13:30:18;8.00;67.40
15394;DHT22;7795;47.986;11.868;2023-01-31T13:32:47;8.00;67.40
15394;DHT22;7795;47.986;11.868;2023-01-31T13:35:17;8.00;67.60
15394;DHT22;7795;47.986;11.868;2023-01-31T13:37:49;8.00;67.40
15394;DHT22;7795;47.986;11.868;2023-01-31T13:40:20;8.00;67.30
15394;DHT22;7795;47.986;11.868;2023-01-31T13:42:48;8.00;67.30
15394;DHT22;7795;47.986;11.868;2023-01-31T13:45:21;8.00;67.20
15394;DHT22;7795;47.986;11.868;2023-01-31T13:47:51;8.10;67.00
15394;DHT22;7795;47.986;11.868;2023-01-31T13:50:29;8.10;67.10
15394;DHT22;7795;47.986;11.868;2023-01-31T13:53:00;8.10;66.70
15394;DHT22;7795;47.986;11.868;2023-01-31T13:55:32;8.10;66.70
15394;DHT22;7795;47.986;11.868;2023-01-31T13:58:05;8.10;66.70
15394;DHT22;7795;47.986;11.868;2023-01-31T14:00:40;8.20;66.60
15394;DHT22;7795;47.986;11.868;2023-01-31T14:03:08;8.10;66.30
15394;DHT22;7795;47.986;11.868;2023-01-31T14:06:01;8.20;66.90
15394;DHT22;7795;47.986;11.868;2023-01-31T14:08:35;8.20;65.80
15394;DHT22;7795;47.986;11.868;2023-01-31T14:11:34;8.20;66.30
15394;DHT22;7795;47.986;11.868;2023-01-31T14:17:02;8.20;66.10
15394;DHT22;7795;47.986;11.868;2023-01-31T14:22:33;8.20;65.40
15394;DHT22;7795;47.986;11.868;2023-01-31T14:25:02;8.20;66.90
15394;DHT22;7795;47.986;11.868;2023-01-31T14:27:44;8.20;66.10
15394;DHT22;7795;47.986;11.868;2023-01-31T14:30:32;8.20;65.50
15394;DHT22;7795;47.986;11.868;2023-01-31T14:33:05;8.20;65.50
15394;DHT22;7795;47.986;11.868;2023-01-31T14:38:39;8.10;65.30
15394;DHT22;7795;47.986;11.868;2023-01-31T14:41:16;8.20;65.80
15394;DHT22;7795;47.986;11.868;2023-01-31T14:43:57;8.10;65.70
15394;DHT22;7795;47.986;11.868;2023-01-31T14:46:43;8.10;65.70
15394;DHT22;7795;47.986;11.868;2023-01-31T14:49:38;8.10;65.50
15394;DHT22;7795;47.986;11.868;2023-01-31T14:52:31;8.10;65.70
15394;DHT22;7795;47.986;11.868;2023-01-31T14:55:19;8.10;65.40
15394;DHT22;7795;47.986;11.868;2023-01-31T14:57:47;8.10;65.30
15394;DHT22;7795;47.986;11.868;2023-01-31T15:00:19;8.10;65.70
15394;DHT22;7795;47.986;11.868;2023-01-31T15:02:49;8.10;65.60
15394;DHT22;7795;47.986;11.868;2023-01-31T15:05:19;8.00;65.50
15394;DHT22;7795;47.986;11.868;2023-01-31T15:08:08;8.00;65.60
15394;DHT22;7795;47.986;11.868;2023-01-31T15:11:00;8.00;64.70
15394;DHT22;7795;47.986;11.868;2023-01-31T15:13:41;8.00;65.10
15394;DHT22;7795;47.986;11.868;2023-01-31T15:16:16;8.00;65.00
15394;DHT22;7795;47.986;11.868;2023-01-31T15:18:44;7.90;64.80
15394;DHT22;7795;47.986;11.868;2023-01-31T15:21:11;7.90;65.20
15394;DHT22;7795;47.986;11.868;2023-01-31T15:23:43;7.90;65.20
15394;DHT22;7795;47.986;11.868;2023-01-31T15:26:13;7.90;65.00
15394;DHT22;7795;47.986;11.868;2023-01-31T15:28:42;7.80;64.80
15394;DHT22;7795;47.986;11.868;2023-01-31T15:31:15;7.90;65.10
15394;DHT22;7795;47.986;11.868;2023-01-31T15:33:44;7.90;64.90
15394;DHT22;7795;47.986;11.868;2023-01-31T15:36:18;7.80;64.80
15394;DHT22;7795;47.986;11.868;2023-01-31T15:38:50;7.80;64.80
15394;DHT22;7795;47.986;11.868;2023-01-31T15:41:20;7.80;64.80
15394;DHT22;7795;47.986;11.868;2023-01-31T15:43:48;7.80;64.70
15394;DHT22;7795;47.986;11.868;2023-01-31T15:46:27;7.70;64.80
15394;DHT22;7795;47.986;11.868;2023-01-31T15:48:53;7.70;64.40
15394;DHT22;7795;47.986;11.868;2023-01-31T15:51:20;7.70;64.90
15394;DHT22;7795;47.986;11.868;2023-01-31T15:53:46;7.70;64.90
15394;DHT22;7795;47.986;11.868;2023-01-31T15:56:16;7.70;64.80
15394;DHT22;7795;47.986;11.868;2023-01-31T15:58:47;7.70;64.50
15394;DHT22;7795;47.986;11.868;2023-01-31T16:01:15;7.70;64.30
15394;DHT22;7795;47.986;11.868;2023-01-31T16:03:48;7.70;64.60
15394;DHT22;7795;47.986;11.868;2023-01-31T16:06:23;7.70;64.50
15394;DHT22;7795;47.986;11.868;2023-01-31T16:08:54;7.70;64.60
15394;DHT22;7795;47.986;11.868;2023-01-31T16:11:20;7.70;64.60
15394;DHT22;7795;47.986;11.868;2023-01-31T16:13:48;7.60;64.80
15394;DHT22;7795;47.986;11.868;2023-01-31T16:16:15;7.60;64.60
15394;DHT22;7795;47.986;11.868;2023-01-31T16:18:43;7.60;64.50